<?xml version="1.0" encoding="UTF-8" standalone="no" ?>
<gpx xmlns="http://www.topografix.com/GPX/1/1" xmlns:xsi="http://www.w3.org/2001/XMLSchema-instance" xsi:schemaLocation="http://www.topografix.com/GPX/1/1 http://www.topografix.com/GPX/1/1/gpx.xsd" version="1.1" creator="VisuGPX - https://www.visugpx.com">
  <metadata>
    <name>Boucle Château d'Anet - Château d'Abondant - Château de Sorel</name>
    <desc><![CDATA[Découverte de la forêt de Dreux

Boucle Château d'Anet - Château d'Abondant - Château de Sorel 38km]]></desc>
  </metadata>
  <trk>
    <name><![CDATA[Boucle Château d'Anet - Château d'Abondant - Château de Sorel]]></name>
    <trkseg>
      <trkpt lat="48.85811" lon="1.43869">
        <ele>67.978603</ele>
        <time>2021-02-18T17:09:02.261Z</time>
      </trkpt>
      <trkpt lat="48.85807" lon="1.43816">
        <ele>67.978603</ele>
        <time>2021-02-18T17:09:10.632Z</time>
      </trkpt>
      <trkpt lat="48.85808" lon="1.43808">
        <ele>67.978603</ele>
        <time>2021-02-18T17:09:12.042Z</time>
      </trkpt>
      <trkpt lat="48.85806" lon="1.43785">
        <ele>67.978603</ele>
        <time>2021-02-18T17:09:15.378Z</time>
      </trkpt>
      <trkpt lat="48.85804" lon="1.43769">
        <ele>67.978603</ele>
        <time>2021-02-18T17:09:17.812Z</time>
      </trkpt>
      <trkpt lat="48.85802" lon="1.43743">
        <ele>67.978603</ele>
        <time>2021-02-18T17:09:22.071Z</time>
      </trkpt>
      <trkpt lat="48.858" lon="1.43733">
        <ele>67.980909</ele>
        <time>2021-02-18T17:09:23.523Z</time>
      </trkpt>
      <trkpt lat="48.85797" lon="1.43726">
        <ele>68.003715</ele>
        <time>2021-02-18T17:09:24.805Z</time>
      </trkpt>
      <trkpt lat="48.85772" lon="1.437">
        <ele>68.133821</ele>
        <time>2021-02-18T17:09:31.722Z</time>
      </trkpt>
      <trkpt lat="48.85762" lon="1.43692">
        <ele>68.179864</ele>
        <time>2021-02-18T17:09:34.481Z</time>
      </trkpt>
      <trkpt lat="48.85757" lon="1.43687">
        <ele>68.207409</ele>
        <time>2021-02-18T17:09:36.073Z</time>
      </trkpt>
      <trkpt lat="48.85752" lon="1.43683">
        <ele>68.228665</ele>
        <time>2021-02-18T17:09:37.436Z</time>
      </trkpt>
      <trkpt lat="48.85746" lon="1.43677">
        <ele>68.259177</ele>
        <time>2021-02-18T17:09:39.016Z</time>
      </trkpt>
      <trkpt lat="48.85728" lon="1.4366">
        <ele>68.348992</ele>
        <time>2021-02-18T17:09:43.943Z</time>
      </trkpt>
      <trkpt lat="48.85702" lon="1.4363">
        <ele>68.486478</ele>
        <time>2021-02-18T17:09:51.941Z</time>
      </trkpt>
      <trkpt lat="48.85661" lon="1.43588">
        <ele>68.697735</ele>
        <time>2021-02-18T17:10:05.787Z</time>
      </trkpt>
      <trkpt lat="48.8565" lon="1.43585">
        <ele>68.755917</ele>
        <time>2021-02-18T17:10:08.757Z</time>
      </trkpt>
      <trkpt lat="48.85639" lon="1.43586">
        <ele>68.952028</ele>
        <time>2021-02-18T17:10:12.447Z</time>
      </trkpt>
      <trkpt lat="48.85591" lon="1.43597">
        <ele>69.831091</ele>
        <time>2021-02-18T17:10:28.309Z</time>
      </trkpt>
      <trkpt lat="48.85578" lon="1.43595">
        <ele>70.065875</ele>
        <time>2021-02-18T17:10:32.609Z</time>
      </trkpt>
      <trkpt lat="48.85546" lon="1.43584">
        <ele>70.653195</ele>
        <time>2021-02-18T17:10:43.751Z</time>
      </trkpt>
      <trkpt lat="48.8554" lon="1.43583">
        <ele>70.757525</ele>
        <time>2021-02-18T17:10:45.853Z</time>
      </trkpt>
      <trkpt lat="48.85518" lon="1.43581">
        <ele>71.151689</ele>
        <time>2021-02-18T17:10:53.583Z</time>
      </trkpt>
      <trkpt lat="48.85479" lon="1.43581">
        <ele>71.866463</ele>
        <time>2021-02-18T17:11:08.001Z</time>
      </trkpt>
      <trkpt lat="48.85447" lon="1.4357">
        <ele>72.512669</ele>
        <time>2021-02-18T17:11:20.123Z</time>
      </trkpt>
      <trkpt lat="48.8543" lon="1.43565">
        <ele>72.879255</ele>
        <time>2021-02-18T17:11:26.943Z</time>
      </trkpt>
      <trkpt lat="48.85316" lon="1.4353">
        <ele>75.276455</ele>
        <time>2021-02-18T17:12:08.570Z</time>
      </trkpt>
      <trkpt lat="48.85313" lon="1.43513">
        <ele>75.513713</ele>
        <time>2021-02-18T17:12:12.676Z</time>
      </trkpt>
      <trkpt lat="48.85272" lon="1.43421">
        <ele>76.3943</ele>
        <time>2021-02-18T17:12:35.400Z</time>
      </trkpt>
      <trkpt lat="48.8523" lon="1.43355">
        <ele>77.070199</ele>
        <time>2021-02-18T17:12:52.538Z</time>
      </trkpt>
      <trkpt lat="48.85202" lon="1.43302">
        <ele>77.564637</ele>
        <time>2021-02-18T17:13:05.103Z</time>
      </trkpt>
      <trkpt lat="48.85171" lon="1.4324">
        <ele>77.838558</ele>
        <time>2021-02-18T17:13:18.777Z</time>
      </trkpt>
      <trkpt lat="48.85162" lon="1.43218">
        <ele>77.911362</ele>
        <time>2021-02-18T17:13:23.552Z</time>
      </trkpt>
      <trkpt lat="48.85128" lon="1.43152">
        <ele>78.13583</ele>
        <time>2021-02-18T17:13:38.075Z</time>
      </trkpt>
      <trkpt lat="48.85107" lon="1.43112">
        <ele>78.274621</ele>
        <time>2021-02-18T17:13:46.242Z</time>
      </trkpt>
      <trkpt lat="48.85081" lon="1.4306">
        <ele>78.392908</ele>
        <time>2021-02-18T17:13:56.004Z</time>
      </trkpt>
      <trkpt lat="48.85049" lon="1.42997">
        <ele>78.315283</ele>
        <time>2021-02-18T17:14:07.958Z</time>
      </trkpt>
      <trkpt lat="48.85042" lon="1.4298">
        <ele>78.295804</ele>
        <time>2021-02-18T17:14:11.017Z</time>
      </trkpt>
      <trkpt lat="48.85032" lon="1.42973">
        <ele>78.279382</ele>
        <time>2021-02-18T17:14:15.028Z</time>
      </trkpt>
      <trkpt lat="48.84915" lon="1.42821">
        <ele>78.698219</ele>
        <time>2021-02-18T17:15:12.795Z</time>
      </trkpt>
      <trkpt lat="48.84875" lon="1.42774">
        <ele>79.154341</ele>
        <time>2021-02-18T17:15:34.128Z</time>
      </trkpt>
      <trkpt lat="48.8485" lon="1.42746">
        <ele>79.436625</ele>
        <time>2021-02-18T17:15:48.771Z</time>
      </trkpt>
      <trkpt lat="48.84756" lon="1.42723">
        <ele>82.243067</ele>
        <time>2021-02-18T17:16:38.161Z</time>
      </trkpt>
      <trkpt lat="48.84728" lon="1.42705">
        <ele>83.538614</ele>
        <time>2021-02-18T17:16:55.630Z</time>
      </trkpt>
      <trkpt lat="48.84688" lon="1.42663">
        <ele>85.621561</ele>
        <time>2021-02-18T17:17:28.017Z</time>
      </trkpt>
      <trkpt lat="48.8461" lon="1.42554">
        <ele>92.785603</ele>
        <time>2021-02-18T17:18:53.336Z</time>
      </trkpt>
      <trkpt lat="48.84589" lon="1.42527">
        <ele>95.073851</ele>
        <time>2021-02-18T17:19:16.846Z</time>
      </trkpt>
      <trkpt lat="48.84569" lon="1.42513">
        <ele>96.950088</ele>
        <time>2021-02-18T17:19:38.503Z</time>
      </trkpt>
      <trkpt lat="48.84508" lon="1.42476">
        <ele>102.465092</ele>
        <time>2021-02-18T17:20:40.530Z</time>
      </trkpt>
      <trkpt lat="48.84464" lon="1.42417">
        <ele>107.755006</ele>
        <time>2021-02-18T17:21:39.208Z</time>
      </trkpt>
      <trkpt lat="48.8445" lon="1.42352">
        <ele>111.815708</ele>
        <time>2021-02-18T17:22:22.880Z</time>
      </trkpt>
      <trkpt lat="48.84392" lon="1.42263">
        <ele>119.096725</ele>
        <time>2021-02-18T17:23:33.828Z</time>
      </trkpt>
      <trkpt lat="48.84358" lon="1.42241">
        <ele>121.374441</ele>
        <time>2021-02-18T17:24:05.510Z</time>
      </trkpt>
      <trkpt lat="48.84317" lon="1.42225">
        <ele>123.979886</ele>
        <time>2021-02-18T17:24:39.233Z</time>
      </trkpt>
      <trkpt lat="48.84261" lon="1.42182">
        <ele>127.800549</ele>
        <time>2021-02-18T17:25:24.536Z</time>
      </trkpt>
      <trkpt lat="48.84229" lon="1.42157">
        <ele>129.895065</ele>
        <time>2021-02-18T17:25:48.264Z</time>
      </trkpt>
      <trkpt lat="48.84136" lon="1.42085">
        <ele>132.644575</ele>
        <time>2021-02-18T17:26:48.695Z</time>
      </trkpt>
      <trkpt lat="48.84133" lon="1.42085">
        <ele>132.736919</ele>
        <time>2021-02-18T17:26:50.554Z</time>
      </trkpt>
      <trkpt lat="48.84085" lon="1.42132">
        <ele>134.23801</ele>
        <time>2021-02-18T17:27:17.184Z</time>
      </trkpt>
      <trkpt lat="48.84038" lon="1.42177">
        <ele>135.007521</ele>
        <time>2021-02-18T17:27:31.979Z</time>
      </trkpt>
      <trkpt lat="48.84038" lon="1.42164">
        <ele>135.094805</ele>
        <time>2021-02-18T17:27:35.395Z</time>
      </trkpt>
      <trkpt lat="48.84031" lon="1.42129">
        <ele>135.350364</ele>
        <time>2021-02-18T17:27:46.406Z</time>
      </trkpt>
      <trkpt lat="48.83973" lon="1.41982">
        <ele>136.544524</ele>
        <time>2021-02-18T17:28:36.900Z</time>
      </trkpt>
      <trkpt lat="48.83981" lon="1.41921">
        <ele>137.075006</ele>
        <time>2021-02-18T17:28:55.913Z</time>
      </trkpt>
      <trkpt lat="48.84008" lon="1.41795">
        <ele>138.221117</ele>
        <time>2021-02-18T17:29:37.217Z</time>
      </trkpt>
      <trkpt lat="48.8399" lon="1.41742">
        <ele>138.737146</ele>
        <time>2021-02-18T17:29:55.958Z</time>
      </trkpt>
      <trkpt lat="48.83978" lon="1.4169">
        <ele>138.802545</ele>
        <time>2021-02-18T17:30:11.907Z</time>
      </trkpt>
      <trkpt lat="48.8393" lon="1.41483">
        <ele>138.857815</ele>
        <time>2021-02-18T17:31:06.069Z</time>
      </trkpt>
      <trkpt lat="48.83912" lon="1.41457">
        <ele>138.629075</ele>
        <time>2021-02-18T17:31:14.925Z</time>
      </trkpt>
      <trkpt lat="48.83922" lon="1.41286">
        <ele>137.402107</ele>
        <time>2021-02-18T17:31:54.706Z</time>
      </trkpt>
      <trkpt lat="48.8393" lon="1.4119">
        <ele>136.140055</ele>
        <time>2021-02-18T17:32:16.523Z</time>
      </trkpt>
      <trkpt lat="48.83921" lon="1.41112">
        <ele>133.963437</ele>
        <time>2021-02-18T17:32:33.501Z</time>
      </trkpt>
      <trkpt lat="48.8388" lon="1.40995">
        <ele>130.301949</ele>
        <time>2021-02-18T17:32:58.975Z</time>
      </trkpt>
      <trkpt lat="48.83864" lon="1.40944">
        <ele>128.068687</ele>
        <time>2021-02-18T17:33:09.151Z</time>
      </trkpt>
      <trkpt lat="48.83859" lon="1.40916">
        <ele>126.416653</ele>
        <time>2021-02-18T17:33:14.324Z</time>
      </trkpt>
      <trkpt lat="48.8386" lon="1.40907">
        <ele>125.878391</ele>
        <time>2021-02-18T17:33:15.962Z</time>
      </trkpt>
      <trkpt lat="48.83868" lon="1.40904">
        <ele>125.182734</ele>
        <time>2021-02-18T17:33:18.164Z</time>
      </trkpt>
      <trkpt lat="48.83871" lon="1.40897">
        <ele>124.744543</ele>
        <time>2021-02-18T17:33:19.508Z</time>
      </trkpt>
      <trkpt lat="48.83919" lon="1.40755">
        <ele>115.635093</ele>
        <time>2021-02-18T17:33:34.818Z</time>
      </trkpt>
      <trkpt lat="48.83947" lon="1.40616">
        <ele>108.406536</ele>
        <time>2021-02-18T17:33:48.786Z</time>
      </trkpt>
      <trkpt lat="48.83951" lon="1.40575">
        <ele>106.444156</ele>
        <time>2021-02-18T17:33:52.864Z</time>
      </trkpt>
      <trkpt lat="48.83913" lon="1.40402">
        <ele>99.216128</ele>
        <time>2021-02-18T17:34:11.917Z</time>
      </trkpt>
      <trkpt lat="48.83908" lon="1.40365">
        <ele>98.28943</ele>
        <time>2021-02-18T17:34:16.042Z</time>
      </trkpt>
      <trkpt lat="48.83912" lon="1.40344">
        <ele>97.733844</ele>
        <time>2021-02-18T17:34:18.573Z</time>
      </trkpt>
      <trkpt lat="48.83961" lon="1.40263">
        <ele>94.993765</ele>
        <time>2021-02-18T17:34:31.174Z</time>
      </trkpt>
      <trkpt lat="48.84043" lon="1.40179">
        <ele>91.63033</ele>
        <time>2021-02-18T17:34:48.562Z</time>
      </trkpt>
      <trkpt lat="48.84151" lon="1.40116">
        <ele>87.876881</ele>
        <time>2021-02-18T17:35:08.293Z</time>
      </trkpt>
      <trkpt lat="48.84275" lon="1.40078">
        <ele>83.651553</ele>
        <time>2021-02-18T17:35:29.389Z</time>
      </trkpt>
      <trkpt lat="48.8429" lon="1.40065">
        <ele>83.068178</ele>
        <time>2021-02-18T17:35:32.470Z</time>
      </trkpt>
      <trkpt lat="48.84297" lon="1.40047">
        <ele>82.598664</ele>
        <time>2021-02-18T17:35:35.194Z</time>
      </trkpt>
      <trkpt lat="48.84302" lon="1.40031">
        <ele>82.210203</ele>
        <time>2021-02-18T17:35:37.128Z</time>
      </trkpt>
      <trkpt lat="48.84318" lon="1.39982">
        <ele>81.896313</ele>
        <time>2021-02-18T17:35:43.936Z</time>
      </trkpt>
      <trkpt lat="48.84301" lon="1.39955">
        <ele>81.703052</ele>
        <time>2021-02-18T17:35:49.234Z</time>
      </trkpt>
      <trkpt lat="48.84279" lon="1.39909">
        <ele>81.409239</ele>
        <time>2021-02-18T17:35:56.829Z</time>
      </trkpt>
      <trkpt lat="48.84248" lon="1.39869">
        <ele>81.09456</ele>
        <time>2021-02-18T17:36:05.357Z</time>
      </trkpt>
      <trkpt lat="48.84241" lon="1.39856">
        <ele>81.007529</ele>
        <time>2021-02-18T17:36:09.420Z</time>
      </trkpt>
      <trkpt lat="48.84094" lon="1.39692">
        <ele>82.126551</ele>
        <time>2021-02-18T17:37:29.685Z</time>
      </trkpt>
      <trkpt lat="48.83995" lon="1.39561">
        <ele>83.489791</ele>
        <time>2021-02-18T17:38:27.495Z</time>
      </trkpt>
      <trkpt lat="48.83964" lon="1.39513">
        <ele>83.968414</ele>
        <time>2021-02-18T17:38:47.801Z</time>
      </trkpt>
      <trkpt lat="48.83947" lon="1.39473">
        <ele>84.307399</ele>
        <time>2021-02-18T17:39:02.240Z</time>
      </trkpt>
      <trkpt lat="48.83928" lon="1.39405">
        <ele>84.850912</ele>
        <time>2021-02-18T17:39:24.343Z</time>
      </trkpt>
      <trkpt lat="48.83901" lon="1.39273">
        <ele>85.879905</ele>
        <time>2021-02-18T17:40:05.771Z</time>
      </trkpt>
      <trkpt lat="48.83881" lon="1.39052">
        <ele>87.147664</ele>
        <time>2021-02-18T17:41:09.495Z</time>
      </trkpt>
      <trkpt lat="48.83866" lon="1.38981">
        <ele>87.518172</ele>
        <time>2021-02-18T17:41:29.753Z</time>
      </trkpt>
      <trkpt lat="48.83797" lon="1.3873">
        <ele>88.412719</ele>
        <time>2021-02-18T17:42:43.603Z</time>
      </trkpt>
      <trkpt lat="48.83749" lon="1.38553">
        <ele>88.693876</ele>
        <time>2021-02-18T17:43:33.991Z</time>
      </trkpt>
      <trkpt lat="48.83726" lon="1.3847">
        <ele>88.78874</ele>
        <time>2021-02-18T17:43:48.721Z</time>
      </trkpt>
      <trkpt lat="48.83696" lon="1.38379">
        <ele>88.745343</ele>
        <time>2021-02-18T17:44:04.904Z</time>
      </trkpt>
      <trkpt lat="48.8357" lon="1.38073">
        <ele>88.347078</ele>
        <time>2021-02-18T17:45:00.973Z</time>
      </trkpt>
      <trkpt lat="48.83492" lon="1.37806">
        <ele>88.220324</ele>
        <time>2021-02-18T17:46:13.780Z</time>
      </trkpt>
      <trkpt lat="48.83462" lon="1.37708">
        <ele>88.246784</ele>
        <time>2021-02-18T17:46:41.045Z</time>
      </trkpt>
      <trkpt lat="48.83435" lon="1.37603">
        <ele>88.534389</ele>
        <time>2021-02-18T17:47:10.790Z</time>
      </trkpt>
      <trkpt lat="48.83426" lon="1.37542">
        <ele>88.695031</ele>
        <time>2021-02-18T17:47:27.878Z</time>
      </trkpt>
      <trkpt lat="48.8336" lon="1.37285">
        <ele>89.279656</ele>
        <time>2021-02-18T17:48:43.264Z</time>
      </trkpt>
      <trkpt lat="48.83352" lon="1.37216">
        <ele>89.413172</ele>
        <time>2021-02-18T17:49:00.773Z</time>
      </trkpt>
      <trkpt lat="48.83371" lon="1.37139">
        <ele>89.380464</ele>
        <time>2021-02-18T17:49:12.457Z</time>
      </trkpt>
      <trkpt lat="48.83389" lon="1.3706">
        <ele>89.306687</ele>
        <time>2021-02-18T17:49:24.538Z</time>
      </trkpt>
      <trkpt lat="48.83394" lon="1.36987">
        <ele>89.242054</ele>
        <time>2021-02-18T17:49:35.226Z</time>
      </trkpt>
      <trkpt lat="48.83391" lon="1.36929">
        <ele>89.342361</ele>
        <time>2021-02-18T17:49:44.584Z</time>
      </trkpt>
      <trkpt lat="48.83376" lon="1.36787">
        <ele>91.390802</ele>
        <time>2021-02-18T17:50:10.052Z</time>
      </trkpt>
      <trkpt lat="48.83377" lon="1.36774">
        <ele>91.569073</ele>
        <time>2021-02-18T17:50:12.831Z</time>
      </trkpt>
      <trkpt lat="48.83372" lon="1.3677">
        <ele>91.682001</ele>
        <time>2021-02-18T17:50:15.323Z</time>
      </trkpt>
      <trkpt lat="48.83327" lon="1.36785">
        <ele>92.672019</ele>
        <time>2021-02-18T17:50:34.961Z</time>
      </trkpt>
      <trkpt lat="48.83299" lon="1.36666">
        <ele>98.411609</ele>
        <time>2021-02-18T17:51:24.969Z</time>
      </trkpt>
      <trkpt lat="48.83301" lon="1.36654">
        <ele>99.056331</ele>
        <time>2021-02-18T17:51:31.041Z</time>
      </trkpt>
      <trkpt lat="48.83243" lon="1.36653">
        <ele>103.861314</ele>
        <time>2021-02-18T17:52:18.560Z</time>
      </trkpt>
      <trkpt lat="48.8321" lon="1.36648">
        <ele>106.666963</ele>
        <time>2021-02-18T17:52:46.743Z</time>
      </trkpt>
      <trkpt lat="48.83186" lon="1.36642">
        <ele>108.824273</ele>
        <time>2021-02-18T17:53:08.057Z</time>
      </trkpt>
      <trkpt lat="48.8317" lon="1.36628">
        <ele>110.770238</ele>
        <time>2021-02-18T17:53:24.676Z</time>
      </trkpt>
      <trkpt lat="48.83139" lon="1.36598">
        <ele>114.617369</ele>
        <time>2021-02-18T17:53:59.581Z</time>
      </trkpt>
      <trkpt lat="48.83102" lon="1.36506">
        <ele>122.042437</ele>
        <time>2021-02-18T17:55:06.279Z</time>
      </trkpt>
      <trkpt lat="48.83052" lon="1.36436">
        <ele>128.108271</ele>
        <time>2021-02-18T17:55:58.810Z</time>
      </trkpt>
      <trkpt lat="48.83049" lon="1.36431">
        <ele>128.358304</ele>
        <time>2021-02-18T17:56:03.101Z</time>
      </trkpt>
      <trkpt lat="48.83035" lon="1.36424">
        <ele>129.217874</ele>
        <time>2021-02-18T17:56:15.054Z</time>
      </trkpt>
      <trkpt lat="48.82997" lon="1.36437">
        <ele>131.436219</ele>
        <time>2021-02-18T17:56:43.008Z</time>
      </trkpt>
      <trkpt lat="48.82974" lon="1.36454">
        <ele>132.921867</ele>
        <time>2021-02-18T17:57:01.410Z</time>
      </trkpt>
      <trkpt lat="48.82955" lon="1.3642">
        <ele>134.593438</ele>
        <time>2021-02-18T17:57:21.238Z</time>
      </trkpt>
      <trkpt lat="48.82884" lon="1.36356">
        <ele>137.630676</ele>
        <time>2021-02-18T17:58:11.050Z</time>
      </trkpt>
      <trkpt lat="48.82846" lon="1.3629">
        <ele>138.28482</ele>
        <time>2021-02-18T17:58:37.731Z</time>
      </trkpt>
      <trkpt lat="48.82486" lon="1.36229">
        <ele>138.194069</ele>
        <time>2021-02-18T18:00:50.792Z</time>
      </trkpt>
      <trkpt lat="48.82486" lon="1.36334">
        <ele>137.973323</ele>
        <time>2021-02-18T18:01:08.008Z</time>
      </trkpt>
      <trkpt lat="48.82486" lon="1.36899">
        <ele>137.724766</ele>
        <time>2021-02-18T18:02:42.857Z</time>
      </trkpt>
      <trkpt lat="48.82486" lon="1.37003">
        <ele>137.828631</ele>
        <time>2021-02-18T18:03:00.547Z</time>
      </trkpt>
      <trkpt lat="48.82486" lon="1.37012">
        <ele>137.837624</ele>
        <time>2021-02-18T18:03:02.419Z</time>
      </trkpt>
      <trkpt lat="48.82327" lon="1.3703">
        <ele>138.232011</ele>
        <time>2021-02-18T18:04:04.873Z</time>
      </trkpt>
      <trkpt lat="48.82245" lon="1.3704">
        <ele>138.593395</ele>
        <time>2021-02-18T18:04:37.950Z</time>
      </trkpt>
      <trkpt lat="48.81875" lon="1.37084">
        <ele>141.790889</ele>
        <time>2021-02-18T18:07:21.823Z</time>
      </trkpt>
      <trkpt lat="48.81874" lon="1.37136">
        <ele>142.075174</ele>
        <time>2021-02-18T18:07:35.719Z</time>
      </trkpt>
      <trkpt lat="48.81861" lon="1.37358">
        <ele>142.362619</ele>
        <time>2021-02-18T18:08:33.874Z</time>
      </trkpt>
      <trkpt lat="48.81874" lon="1.37136">
        <ele>142.190876</ele>
        <time>2021-02-18T18:09:29.690Z</time>
      </trkpt>
      <trkpt lat="48.81875" lon="1.37084">
        <ele>142.122502</ele>
        <time>2021-02-18T18:09:42.315Z</time>
      </trkpt>
      <trkpt lat="48.81291" lon="1.37028">
        <ele>138.754921</ele>
        <time>2021-02-18T18:13:14.101Z</time>
      </trkpt>
      <trkpt lat="48.81441" lon="1.36255">
        <ele>134.413694</ele>
        <time>2021-02-18T18:16:24.172Z</time>
      </trkpt>
      <trkpt lat="48.81292" lon="1.36291">
        <ele>131.191015</ele>
        <time>2021-02-18T18:17:13.013Z</time>
      </trkpt>
      <trkpt lat="48.81228" lon="1.36307">
        <ele>129.345738</ele>
        <time>2021-02-18T18:17:33.564Z</time>
      </trkpt>
      <trkpt lat="48.81151" lon="1.36345">
        <ele>126.685994</ele>
        <time>2021-02-18T18:17:59.435Z</time>
      </trkpt>
      <trkpt lat="48.81067" lon="1.36412">
        <ele>122.934864</ele>
        <time>2021-02-18T18:18:27.321Z</time>
      </trkpt>
      <trkpt lat="48.81044" lon="1.36428">
        <ele>121.698208</ele>
        <time>2021-02-18T18:18:34.315Z</time>
      </trkpt>
      <trkpt lat="48.80968" lon="1.3648">
        <ele>117.503906</ele>
        <time>2021-02-18T18:18:58.289Z</time>
      </trkpt>
      <trkpt lat="48.80924" lon="1.36558">
        <ele>115.227278</ele>
        <time>2021-02-18T18:19:18.040Z</time>
      </trkpt>
      <trkpt lat="48.80883" lon="1.36694">
        <ele>113.50252</ele>
        <time>2021-02-18T18:19:49.665Z</time>
      </trkpt>
      <trkpt lat="48.80861" lon="1.36745">
        <ele>112.797988</ele>
        <time>2021-02-18T18:20:07.439Z</time>
      </trkpt>
      <trkpt lat="48.80858" lon="1.36754">
        <ele>112.684126</ele>
        <time>2021-02-18T18:20:10.727Z</time>
      </trkpt>
      <trkpt lat="48.80756" lon="1.36845">
        <ele>115.622493</ele>
        <time>2021-02-18T18:21:13.469Z</time>
      </trkpt>
      <trkpt lat="48.80735" lon="1.36846">
        <ele>116.142392</ele>
        <time>2021-02-18T18:21:25.109Z</time>
      </trkpt>
      <trkpt lat="48.80803" lon="1.3698">
        <ele>119.156981</ele>
        <time>2021-02-18T18:22:31.396Z</time>
      </trkpt>
      <trkpt lat="48.80697" lon="1.36936">
        <ele>122.24809</ele>
        <time>2021-02-18T18:23:30.804Z</time>
      </trkpt>
      <trkpt lat="48.80626" lon="1.36866">
        <ele>122.746204</ele>
        <time>2021-02-18T18:24:10.506Z</time>
      </trkpt>
      <trkpt lat="48.80616" lon="1.36843">
        <ele>122.850682</ele>
        <time>2021-02-18T18:24:16.616Z</time>
      </trkpt>
      <trkpt lat="48.80601" lon="1.36757">
        <ele>123.188727</ele>
        <time>2021-02-18T18:24:39.776Z</time>
      </trkpt>
      <trkpt lat="48.80589" lon="1.36744">
        <ele>123.277113</ele>
        <time>2021-02-18T18:24:44.804Z</time>
      </trkpt>
      <trkpt lat="48.8053" lon="1.36819">
        <ele>124.073469</ele>
        <time>2021-02-18T18:25:12.608Z</time>
      </trkpt>
      <trkpt lat="48.8051" lon="1.36863">
        <ele>124.451059</ele>
        <time>2021-02-18T18:25:29.042Z</time>
      </trkpt>
      <trkpt lat="48.80498" lon="1.36888">
        <ele>124.667638</ele>
        <time>2021-02-18T18:25:39.291Z</time>
      </trkpt>
      <trkpt lat="48.80441" lon="1.37219">
        <ele>129.421475</ele>
        <time>2021-02-18T18:27:42.509Z</time>
      </trkpt>
      <trkpt lat="48.80402" lon="1.37229">
        <ele>129.31423</ele>
        <time>2021-02-18T18:28:00.856Z</time>
      </trkpt>
      <trkpt lat="48.80324" lon="1.37248">
        <ele>128.716543</ele>
        <time>2021-02-18T18:28:29.628Z</time>
      </trkpt>
      <trkpt lat="48.80294" lon="1.37244">
        <ele>128.490264</ele>
        <time>2021-02-18T18:28:39.560Z</time>
      </trkpt>
      <trkpt lat="48.80247" lon="1.3727">
        <ele>127.790988</ele>
        <time>2021-02-18T18:28:55.229Z</time>
      </trkpt>
      <trkpt lat="48.80242" lon="1.3727">
        <ele>127.608118</ele>
        <time>2021-02-18T18:28:56.985Z</time>
      </trkpt>
      <trkpt lat="48.80221" lon="1.37272">
        <ele>126.899748</ele>
        <time>2021-02-18T18:29:03.458Z</time>
      </trkpt>
      <trkpt lat="48.80185" lon="1.37255">
        <ele>125.666007</ele>
        <time>2021-02-18T18:29:14.766Z</time>
      </trkpt>
      <trkpt lat="48.80162" lon="1.37254">
        <ele>124.891817</ele>
        <time>2021-02-18T18:29:21.794Z</time>
      </trkpt>
      <trkpt lat="48.80008" lon="1.37355">
        <ele>120.73821</ele>
        <time>2021-02-18T18:30:13.488Z</time>
      </trkpt>
      <trkpt lat="48.79935" lon="1.37429">
        <ele>119.241161</ele>
        <time>2021-02-18T18:30:45.200Z</time>
      </trkpt>
      <trkpt lat="48.79893" lon="1.37547">
        <ele>120.630289</ele>
        <time>2021-02-18T18:31:25.491Z</time>
      </trkpt>
      <trkpt lat="48.79837" lon="1.37701">
        <ele>122.724569</ele>
        <time>2021-02-18T18:32:27.321Z</time>
      </trkpt>
      <trkpt lat="48.79848" lon="1.3778">
        <ele>123.870057</ele>
        <time>2021-02-18T18:32:55.572Z</time>
      </trkpt>
      <trkpt lat="48.79848" lon="1.37798">
        <ele>124.132402</ele>
        <time>2021-02-18T18:33:01.930Z</time>
      </trkpt>
      <trkpt lat="48.79838" lon="1.37794">
        <ele>124.34858</ele>
        <time>2021-02-18T18:33:07.067Z</time>
      </trkpt>
      <trkpt lat="48.79818" lon="1.37741">
        <ele>125.208021</ele>
        <time>2021-02-18T18:33:27.100Z</time>
      </trkpt>
      <trkpt lat="48.79787" lon="1.37686">
        <ele>126.1971</ele>
        <time>2021-02-18T18:33:50.588Z</time>
      </trkpt>
      <trkpt lat="48.79771" lon="1.37676">
        <ele>126.329586</ele>
        <time>2021-02-18T18:33:59.077Z</time>
      </trkpt>
      <trkpt lat="48.79745" lon="1.37683">
        <ele>126.531697</ele>
        <time>2021-02-18T18:34:11.834Z</time>
      </trkpt>
      <trkpt lat="48.7973" lon="1.37736">
        <ele>126.822772</ele>
        <time>2021-02-18T18:34:29.914Z</time>
      </trkpt>
      <trkpt lat="48.79702" lon="1.37758">
        <ele>127.062874</ele>
        <time>2021-02-18T18:34:44.081Z</time>
      </trkpt>
      <trkpt lat="48.79651" lon="1.37773">
        <ele>127.459895</ele>
        <time>2021-02-18T18:35:03.791Z</time>
      </trkpt>
      <trkpt lat="48.79603" lon="1.37765">
        <ele>126.665176</ele>
        <time>2021-02-18T18:35:20.719Z</time>
      </trkpt>
      <trkpt lat="48.79557" lon="1.37757">
        <ele>125.592129</ele>
        <time>2021-02-18T18:35:36.294Z</time>
      </trkpt>
      <trkpt lat="48.79511" lon="1.37789">
        <ele>124.43304</ele>
        <time>2021-02-18T18:35:52.268Z</time>
      </trkpt>
      <trkpt lat="48.79431" lon="1.37845">
        <ele>122.441248</ele>
        <time>2021-02-18T18:36:18.910Z</time>
      </trkpt>
      <trkpt lat="48.79416" lon="1.37864">
        <ele>122.011462</ele>
        <time>2021-02-18T18:36:24.555Z</time>
      </trkpt>
      <trkpt lat="48.79387" lon="1.38005">
        <ele>119.872733</ele>
        <time>2021-02-18T18:36:56.599Z</time>
      </trkpt>
      <trkpt lat="48.79388" lon="1.38088">
        <ele>120.391916</ele>
        <time>2021-02-18T18:37:18.424Z</time>
      </trkpt>
      <trkpt lat="48.79389" lon="1.38168">
        <ele>121.851766</ele>
        <time>2021-02-18T18:37:46.810Z</time>
      </trkpt>
      <trkpt lat="48.79388" lon="1.38366">
        <ele>125.333552</ele>
        <time>2021-02-18T18:39:11.034Z</time>
      </trkpt>
      <trkpt lat="48.79382" lon="1.38397">
        <ele>125.86258</ele>
        <time>2021-02-18T18:39:24.535Z</time>
      </trkpt>
      <trkpt lat="48.79344" lon="1.38448">
        <ele>127.125319</ele>
        <time>2021-02-18T18:39:52.855Z</time>
      </trkpt>
      <trkpt lat="48.79324" lon="1.38516">
        <ele>128.346133</ele>
        <time>2021-02-18T18:40:15.832Z</time>
      </trkpt>
      <trkpt lat="48.79288" lon="1.38577">
        <ele>128.314368</ele>
        <time>2021-02-18T18:40:35.948Z</time>
      </trkpt>
      <trkpt lat="48.79238" lon="1.38626">
        <ele>127.33211</ele>
        <time>2021-02-18T18:40:57.023Z</time>
      </trkpt>
      <trkpt lat="48.79235" lon="1.38631">
        <ele>127.255495</ele>
        <time>2021-02-18T18:40:58.371Z</time>
      </trkpt>
      <trkpt lat="48.78977" lon="1.38776">
        <ele>120.843855</ele>
        <time>2021-02-18T18:42:24.680Z</time>
      </trkpt>
      <trkpt lat="48.78977" lon="1.38761">
        <ele>120.88761</ele>
        <time>2021-02-18T18:42:26.227Z</time>
      </trkpt>
      <trkpt lat="48.78986" lon="1.38714">
        <ele>121.029309</ele>
        <time>2021-02-18T18:42:32.379Z</time>
      </trkpt>
      <trkpt lat="48.79025" lon="1.38666">
        <ele>121.254236</ele>
        <time>2021-02-18T18:42:45.637Z</time>
      </trkpt>
      <trkpt lat="48.79043" lon="1.38652">
        <ele>121.341134</ele>
        <time>2021-02-18T18:42:51.479Z</time>
      </trkpt>
      <trkpt lat="48.79029" lon="1.38596">
        <ele>121.514495</ele>
        <time>2021-02-18T18:43:11.197Z</time>
      </trkpt>
      <trkpt lat="48.78974" lon="1.38522">
        <ele>124.649457</ele>
        <time>2021-02-18T18:43:58.933Z</time>
      </trkpt>
      <trkpt lat="48.78991" lon="1.3848">
        <ele>126.347268</ele>
        <time>2021-02-18T18:44:21.730Z</time>
      </trkpt>
      <trkpt lat="48.79048" lon="1.38328">
        <ele>132.10701</ele>
        <time>2021-02-18T18:45:51.264Z</time>
      </trkpt>
      <trkpt lat="48.79068" lon="1.38223">
        <ele>135.147009</ele>
        <time>2021-02-18T18:46:36.720Z</time>
      </trkpt>
      <trkpt lat="48.79072" lon="1.38201">
        <ele>135.810221</ele>
        <time>2021-02-18T18:46:46.627Z</time>
      </trkpt>
      <trkpt lat="48.79069" lon="1.3813">
        <ele>137.793964</ele>
        <time>2021-02-18T18:47:13.476Z</time>
      </trkpt>
      <trkpt lat="48.79043" lon="1.38059">
        <ele>139.177716</ele>
        <time>2021-02-18T18:47:43.119Z</time>
      </trkpt>
      <trkpt lat="48.79032" lon="1.38047">
        <ele>139.398322</ele>
        <time>2021-02-18T18:47:50.372Z</time>
      </trkpt>
      <trkpt lat="48.78983" lon="1.38029">
        <ele>140.226913</ele>
        <time>2021-02-18T18:48:15.842Z</time>
      </trkpt>
      <trkpt lat="48.7889" lon="1.3804">
        <ele>141.515562</ele>
        <time>2021-02-18T18:48:55.853Z</time>
      </trkpt>
      <trkpt lat="48.78827" lon="1.3804">
        <ele>141.199648</ele>
        <time>2021-02-18T18:49:19.581Z</time>
      </trkpt>
      <trkpt lat="48.78817" lon="1.38041">
        <ele>141.148939</ele>
        <time>2021-02-18T18:49:23.168Z</time>
      </trkpt>
      <trkpt lat="48.78598" lon="1.37994">
        <ele>139.148269</ele>
        <time>2021-02-18T18:50:40.535Z</time>
      </trkpt>
      <trkpt lat="48.78584" lon="1.37993">
        <ele>138.983423</ele>
        <time>2021-02-18T18:50:45.103Z</time>
      </trkpt>
      <trkpt lat="48.78022" lon="1.37967">
        <ele>131.390893</ele>
        <time>2021-02-18T18:53:56.397Z</time>
      </trkpt>
      <trkpt lat="48.77988" lon="1.37966">
        <ele>131.247851</ele>
        <time>2021-02-18T18:54:09.213Z</time>
      </trkpt>
      <trkpt lat="48.7791" lon="1.38064">
        <ele>131.638306</ele>
        <time>2021-02-18T18:54:50.793Z</time>
      </trkpt>
      <trkpt lat="48.77819" lon="1.38178">
        <ele>132.05039</ele>
        <time>2021-02-18T18:55:41.706Z</time>
      </trkpt>
      <trkpt lat="48.77799" lon="1.38208">
        <ele>132.136124</ele>
        <time>2021-02-18T18:55:53.259Z</time>
      </trkpt>
      <trkpt lat="48.77683" lon="1.38386">
        <ele>131.897196</ele>
        <time>2021-02-18T18:56:56.081Z</time>
      </trkpt>
      <trkpt lat="48.77667" lon="1.38421">
        <ele>131.678563</ele>
        <time>2021-02-18T18:57:06.146Z</time>
      </trkpt>
      <trkpt lat="48.77527" lon="1.38721">
        <ele>128.949721</ele>
        <time>2021-02-18T18:58:28.839Z</time>
      </trkpt>
      <trkpt lat="48.77485" lon="1.38823">
        <ele>128.603694</ele>
        <time>2021-02-18T18:58:56.861Z</time>
      </trkpt>
      <trkpt lat="48.77443" lon="1.39034">
        <ele>128.670647</ele>
        <time>2021-02-18T18:59:54.928Z</time>
      </trkpt>
      <trkpt lat="48.77432" lon="1.39236">
        <ele>129.919379</ele>
        <time>2021-02-18T19:00:55.177Z</time>
      </trkpt>
      <trkpt lat="48.7743" lon="1.39278">
        <ele>130.157378</ele>
        <time>2021-02-18T19:01:07.664Z</time>
      </trkpt>
      <trkpt lat="48.77362" lon="1.39547">
        <ele>131.209385</ele>
        <time>2021-02-18T19:02:26.877Z</time>
      </trkpt>
      <trkpt lat="48.77304" lon="1.39822">
        <ele>131.387886</ele>
        <time>2021-02-18T19:03:38.967Z</time>
      </trkpt>
      <trkpt lat="48.77277" lon="1.39974">
        <ele>131.846284</ele>
        <time>2021-02-18T19:04:20.663Z</time>
      </trkpt>
      <trkpt lat="48.7724" lon="1.40069">
        <ele>132.290916</ele>
        <time>2021-02-18T19:04:52.595Z</time>
      </trkpt>
      <trkpt lat="48.77281" lon="1.402">
        <ele>133.232342</ele>
        <time>2021-02-18T19:05:34.335Z</time>
      </trkpt>
      <trkpt lat="48.77286" lon="1.40197">
        <ele>133.288222</ele>
        <time>2021-02-18T19:05:36.352Z</time>
      </trkpt>
      <trkpt lat="48.77303" lon="1.40193">
        <ele>133.457188</ele>
        <time>2021-02-18T19:05:41.770Z</time>
      </trkpt>
      <trkpt lat="48.77306" lon="1.40208">
        <ele>133.560408</ele>
        <time>2021-02-18T19:05:45.848Z</time>
      </trkpt>
      <trkpt lat="48.77269" lon="1.40239">
        <ele>133.956292</ele>
        <time>2021-02-18T19:06:04.727Z</time>
      </trkpt>
      <trkpt lat="48.77233" lon="1.40255">
        <ele>134.268538</ele>
        <time>2021-02-18T19:06:21.230Z</time>
      </trkpt>
      <trkpt lat="48.77192" lon="1.40317">
        <ele>134.747146</ele>
        <time>2021-02-18T19:06:45.976Z</time>
      </trkpt>
      <trkpt lat="48.7719" lon="1.40372">
        <ele>135.051069</ele>
        <time>2021-02-18T19:07:01.029Z</time>
      </trkpt>
      <trkpt lat="48.772" lon="1.40398">
        <ele>135.21528</ele>
        <time>2021-02-18T19:07:09.527Z</time>
      </trkpt>
      <trkpt lat="48.77232" lon="1.40447">
        <ele>135.528092</ele>
        <time>2021-02-18T19:07:29.445Z</time>
      </trkpt>
      <trkpt lat="48.77248" lon="1.40518">
        <ele>135.824075</ele>
        <time>2021-02-18T19:07:50.392Z</time>
      </trkpt>
      <trkpt lat="48.77281" lon="1.40579">
        <ele>136.141806</ele>
        <time>2021-02-18T19:08:12.277Z</time>
      </trkpt>
      <trkpt lat="48.77305" lon="1.40613">
        <ele>136.340345</ele>
        <time>2021-02-18T19:08:25.678Z</time>
      </trkpt>
      <trkpt lat="48.77329" lon="1.40668">
        <ele>136.258567</ele>
        <time>2021-02-18T19:08:43.128Z</time>
      </trkpt>
      <trkpt lat="48.77376" lon="1.40745">
        <ele>135.830658</ele>
        <time>2021-02-18T19:09:10.121Z</time>
      </trkpt>
      <trkpt lat="48.77408" lon="1.40816">
        <ele>135.480893</ele>
        <time>2021-02-18T19:09:30.497Z</time>
      </trkpt>
      <trkpt lat="48.77408" lon="1.40851">
        <ele>135.337759</ele>
        <time>2021-02-18T19:09:38.122Z</time>
      </trkpt>
      <trkpt lat="48.77399" lon="1.40883">
        <ele>134.270337</ele>
        <time>2021-02-18T19:09:45.860Z</time>
      </trkpt>
      <trkpt lat="48.77397" lon="1.40914">
        <ele>133.232397</ele>
        <time>2021-02-18T19:09:52.079Z</time>
      </trkpt>
      <trkpt lat="48.77406" lon="1.40952">
        <ele>131.902803</ele>
        <time>2021-02-18T19:09:59.999Z</time>
      </trkpt>
      <trkpt lat="48.77419" lon="1.40988">
        <ele>130.525074</ele>
        <time>2021-02-18T19:10:08.212Z</time>
      </trkpt>
      <trkpt lat="48.77408" lon="1.4099">
        <ele>129.945188</ele>
        <time>2021-02-18T19:10:11.281Z</time>
      </trkpt>
      <trkpt lat="48.77384" lon="1.41023">
        <ele>128.3199</ele>
        <time>2021-02-18T19:10:20.419Z</time>
      </trkpt>
      <trkpt lat="48.77355" lon="1.41085">
        <ele>125.559432</ele>
        <time>2021-02-18T19:10:33.886Z</time>
      </trkpt>
      <trkpt lat="48.77346" lon="1.41115">
        <ele>123.817027</ele>
        <time>2021-02-18T19:10:39.857Z</time>
      </trkpt>
      <trkpt lat="48.77346" lon="1.41115">
        <ele>123.817027</ele>
        <time>2021-02-18T19:10:39.886Z</time>
      </trkpt>
      <trkpt lat="48.77349" lon="1.41134">
        <ele>122.817145</ele>
        <time>2021-02-18T19:10:43.272Z</time>
      </trkpt>
      <trkpt lat="48.77337" lon="1.41165">
        <ele>120.998315</ele>
        <time>2021-02-18T19:10:49.344Z</time>
      </trkpt>
      <trkpt lat="48.77283" lon="1.41232">
        <ele>115.490882</ele>
        <time>2021-02-18T19:11:07.950Z</time>
      </trkpt>
      <trkpt lat="48.7727" lon="1.41315">
        <ele>111.734252</ele>
        <time>2021-02-18T19:11:23.271Z</time>
      </trkpt>
      <trkpt lat="48.77255" lon="1.41353">
        <ele>110.861197</ele>
        <time>2021-02-18T19:11:31.653Z</time>
      </trkpt>
      <trkpt lat="48.77268" lon="1.41412">
        <ele>109.642924</ele>
        <time>2021-02-18T19:11:43.924Z</time>
      </trkpt>
      <trkpt lat="48.77292" lon="1.41452">
        <ele>108.575099</ele>
        <time>2021-02-18T19:11:55.419Z</time>
      </trkpt>
      <trkpt lat="48.77361" lon="1.4153">
        <ele>106.908728</ele>
        <time>2021-02-18T19:12:27.077Z</time>
      </trkpt>
      <trkpt lat="48.77423" lon="1.41573">
        <ele>107.39576</ele>
        <time>2021-02-18T19:12:57.304Z</time>
      </trkpt>
      <trkpt lat="48.77463" lon="1.41581">
        <ele>107.683499</ele>
        <time>2021-02-18T19:13:15.679Z</time>
      </trkpt>
      <trkpt lat="48.77514" lon="1.4156">
        <ele>108.079101</ele>
        <time>2021-02-18T19:13:39.067Z</time>
      </trkpt>
      <trkpt lat="48.77541" lon="1.41539">
        <ele>108.377066</ele>
        <time>2021-02-18T19:13:52.171Z</time>
      </trkpt>
      <trkpt lat="48.7758" lon="1.41554">
        <ele>108.774137</ele>
        <time>2021-02-18T19:14:09.512Z</time>
      </trkpt>
      <trkpt lat="48.77601" lon="1.41551">
        <ele>108.982328</ele>
        <time>2021-02-18T19:14:18.555Z</time>
      </trkpt>
      <trkpt lat="48.77658" lon="1.41594">
        <ele>109.613889</ele>
        <time>2021-02-18T19:14:47.104Z</time>
      </trkpt>
      <trkpt lat="48.77682" lon="1.41621">
        <ele>109.960471</ele>
        <time>2021-02-18T19:15:00.515Z</time>
      </trkpt>
      <trkpt lat="48.77704" lon="1.41658">
        <ele>110.407176</ele>
        <time>2021-02-18T19:15:14.990Z</time>
      </trkpt>
      <trkpt lat="48.77723" lon="1.41671">
        <ele>110.69826</ele>
        <time>2021-02-18T19:15:24.407Z</time>
      </trkpt>
      <trkpt lat="48.77752" lon="1.41687">
        <ele>111.127801</ele>
        <time>2021-02-18T19:15:38.985Z</time>
      </trkpt>
      <trkpt lat="48.77759" lon="1.41691">
        <ele>111.226036</ele>
        <time>2021-02-18T19:15:41.960Z</time>
      </trkpt>
      <trkpt lat="48.77711" lon="1.41843">
        <ele>112.944576</ele>
        <time>2021-02-18T19:16:35.011Z</time>
      </trkpt>
      <trkpt lat="48.77859" lon="1.41905">
        <ele>115.900782</ele>
        <time>2021-02-18T19:17:52.280Z</time>
      </trkpt>
      <trkpt lat="48.77914" lon="1.41957">
        <ele>117.02684</ele>
        <time>2021-02-18T19:18:25.385Z</time>
      </trkpt>
      <trkpt lat="48.77926" lon="1.41994">
        <ele>117.504051</ele>
        <time>2021-02-18T19:18:39.025Z</time>
      </trkpt>
      <trkpt lat="48.77944" lon="1.42084">
        <ele>118.582911</ele>
        <time>2021-02-18T19:19:08.513Z</time>
      </trkpt>
      <trkpt lat="48.7796" lon="1.42138">
        <ele>118.937273</ele>
        <time>2021-02-18T19:19:26.181Z</time>
      </trkpt>
      <trkpt lat="48.77975" lon="1.42168">
        <ele>118.990274</ele>
        <time>2021-02-18T19:19:36.966Z</time>
      </trkpt>
      <trkpt lat="48.78027" lon="1.42159">
        <ele>119.101464</ele>
        <time>2021-02-18T19:19:58.088Z</time>
      </trkpt>
      <trkpt lat="48.78091" lon="1.42284">
        <ele>119.289342</ele>
        <time>2021-02-18T19:20:36.117Z</time>
      </trkpt>
      <trkpt lat="48.7803" lon="1.4244">
        <ele>119.374696</ele>
        <time>2021-02-18T19:21:20.815Z</time>
      </trkpt>
      <trkpt lat="48.7799" lon="1.42493">
        <ele>119.884941</ele>
        <time>2021-02-18T19:21:43.387Z</time>
      </trkpt>
      <trkpt lat="48.7794" lon="1.42519">
        <ele>121.469932</ele>
        <time>2021-02-18T19:22:03.531Z</time>
      </trkpt>
      <trkpt lat="48.77871" lon="1.42556">
        <ele>123.681914</ele>
        <time>2021-02-18T19:22:37.012Z</time>
      </trkpt>
      <trkpt lat="48.77823" lon="1.42586">
        <ele>125.291696</ele>
        <time>2021-02-18T19:23:04.345Z</time>
      </trkpt>
      <trkpt lat="48.77796" lon="1.42611">
        <ele>126.324379</ele>
        <time>2021-02-18T19:23:20.398Z</time>
      </trkpt>
      <trkpt lat="48.77744" lon="1.42674">
        <ele>128.551386</ele>
        <time>2021-02-18T19:23:51.983Z</time>
      </trkpt>
      <trkpt lat="48.77718" lon="1.42719">
        <ele>129.859182</ele>
        <time>2021-02-18T19:24:09.319Z</time>
      </trkpt>
      <trkpt lat="48.7771" lon="1.42733">
        <ele>130.276985</ele>
        <time>2021-02-18T19:24:14.256Z</time>
      </trkpt>
      <trkpt lat="48.77688" lon="1.42772">
        <ele>130.75367</ele>
        <time>2021-02-18T19:24:25.690Z</time>
      </trkpt>
      <trkpt lat="48.77775" lon="1.42893">
        <ele>130.578054</ele>
        <time>2021-02-18T19:24:53.236Z</time>
      </trkpt>
      <trkpt lat="48.7778" lon="1.42903">
        <ele>130.565198</ele>
        <time>2021-02-18T19:24:54.971Z</time>
      </trkpt>
      <trkpt lat="48.77789" lon="1.42916">
        <ele>130.546335</ele>
        <time>2021-02-18T19:24:59.274Z</time>
      </trkpt>
      <trkpt lat="48.77828" lon="1.42958">
        <ele>130.265023</ele>
        <time>2021-02-18T19:25:15.251Z</time>
      </trkpt>
      <trkpt lat="48.77861" lon="1.43006">
        <ele>129.803778</ele>
        <time>2021-02-18T19:25:30.658Z</time>
      </trkpt>
      <trkpt lat="48.77879" lon="1.43029">
        <ele>129.571848</ele>
        <time>2021-02-18T19:25:38.762Z</time>
      </trkpt>
      <trkpt lat="48.77883" lon="1.43038">
        <ele>129.500637</ele>
        <time>2021-02-18T19:25:40.992Z</time>
      </trkpt>
      <trkpt lat="48.77863" lon="1.43075">
        <ele>129.189765</ele>
        <time>2021-02-18T19:25:52.067Z</time>
      </trkpt>
      <trkpt lat="48.77846" lon="1.43095">
        <ele>128.970876</ele>
        <time>2021-02-18T19:25:59.934Z</time>
      </trkpt>
      <trkpt lat="48.77787" lon="1.43136">
        <ele>129.443223</ele>
        <time>2021-02-18T19:26:24.744Z</time>
      </trkpt>
      <trkpt lat="48.77766" lon="1.43167">
        <ele>129.99072</ele>
        <time>2021-02-18T19:26:38.127Z</time>
      </trkpt>
      <trkpt lat="48.77755" lon="1.43176">
        <ele>130.226516</ele>
        <time>2021-02-18T19:26:44.872Z</time>
      </trkpt>
      <trkpt lat="48.77775" lon="1.43179">
        <ele>130.603067</ele>
        <time>2021-02-18T19:26:52.452Z</time>
      </trkpt>
      <trkpt lat="48.7783" lon="1.43203">
        <ele>131.681006</ele>
        <time>2021-02-18T19:27:15.995Z</time>
      </trkpt>
      <trkpt lat="48.77845" lon="1.43207">
        <ele>131.967597</ele>
        <time>2021-02-18T19:27:21.986Z</time>
      </trkpt>
      <trkpt lat="48.77871" lon="1.43225">
        <ele>132.712165</ele>
        <time>2021-02-18T19:27:34.254Z</time>
      </trkpt>
      <trkpt lat="48.77898" lon="1.43259">
        <ele>133.700372</ele>
        <time>2021-02-18T19:27:49.953Z</time>
      </trkpt>
      <trkpt lat="48.77903" lon="1.43258">
        <ele>133.834084</ele>
        <time>2021-02-18T19:27:51.777Z</time>
      </trkpt>
      <trkpt lat="48.77913" lon="1.43284">
        <ele>134.398939</ele>
        <time>2021-02-18T19:28:03.476Z</time>
      </trkpt>
      <trkpt lat="48.77972" lon="1.43403">
        <ele>137.170877</ele>
        <time>2021-02-18T19:28:58.236Z</time>
      </trkpt>
      <trkpt lat="48.77986" lon="1.43425">
        <ele>137.304728</ele>
        <time>2021-02-18T19:29:08.326Z</time>
      </trkpt>
      <trkpt lat="48.78004" lon="1.43629">
        <ele>138.241223</ele>
        <time>2021-02-18T19:29:45.159Z</time>
      </trkpt>
      <trkpt lat="48.78018" lon="1.43783">
        <ele>138.182358</ele>
        <time>2021-02-18T19:30:08.609Z</time>
      </trkpt>
      <trkpt lat="48.7802" lon="1.43797">
        <ele>138.155899</ele>
        <time>2021-02-18T19:30:10.733Z</time>
      </trkpt>
      <trkpt lat="48.78063" lon="1.43816">
        <ele>138.028957</ele>
        <time>2021-02-18T19:30:21.133Z</time>
      </trkpt>
      <trkpt lat="48.78115" lon="1.43881">
        <ele>137.902602</ele>
        <time>2021-02-18T19:30:37.087Z</time>
      </trkpt>
      <trkpt lat="48.78171" lon="1.43923">
        <ele>137.91925</ele>
        <time>2021-02-18T19:30:52.063Z</time>
      </trkpt>
      <trkpt lat="48.78197" lon="1.43952">
        <ele>137.927845</ele>
        <time>2021-02-18T19:31:00.018Z</time>
      </trkpt>
      <trkpt lat="48.78233" lon="1.43992">
        <ele>137.940026</ele>
        <time>2021-02-18T19:31:11.839Z</time>
      </trkpt>
      <trkpt lat="48.78244" lon="1.44012">
        <ele>137.944451</ele>
        <time>2021-02-18T19:31:16.099Z</time>
      </trkpt>
      <trkpt lat="48.7827" lon="1.44006">
        <ele>137.939963</ele>
        <time>2021-02-18T19:31:22.468Z</time>
      </trkpt>
      <trkpt lat="48.78314" lon="1.43991">
        <ele>137.929458</ele>
        <time>2021-02-18T19:31:32.895Z</time>
      </trkpt>
      <trkpt lat="48.78318" lon="1.4399">
        <ele>137.92868</ele>
        <time>2021-02-18T19:31:33.642Z</time>
      </trkpt>
      <trkpt lat="48.78334" lon="1.43921">
        <ele>137.917524</ele>
        <time>2021-02-18T19:31:45.175Z</time>
      </trkpt>
      <trkpt lat="48.78341" lon="1.43894">
        <ele>137.913187</ele>
        <time>2021-02-18T19:31:58.279Z</time>
      </trkpt>
      <trkpt lat="48.78334" lon="1.43921">
        <ele>137.908851</ele>
        <time>2021-02-18T19:32:11.383Z</time>
      </trkpt>
      <trkpt lat="48.78318" lon="1.4399">
        <ele>137.827802</ele>
        <time>2021-02-18T19:32:23.191Z</time>
      </trkpt>
      <trkpt lat="48.78334" lon="1.43983">
        <ele>137.780869</ele>
        <time>2021-02-18T19:32:27.199Z</time>
      </trkpt>
      <trkpt lat="48.78369" lon="1.43977">
        <ele>137.680584</ele>
        <time>2021-02-18T19:32:35.408Z</time>
      </trkpt>
      <trkpt lat="48.78479" lon="1.4399">
        <ele>137.338128</ele>
        <time>2021-02-18T19:32:59.183Z</time>
      </trkpt>
      <trkpt lat="48.7853" lon="1.4401">
        <ele>137.020746</ele>
        <time>2021-02-18T19:33:10.061Z</time>
      </trkpt>
      <trkpt lat="48.78536" lon="1.44013">
        <ele>136.982591</ele>
        <time>2021-02-18T19:33:11.364Z</time>
      </trkpt>
      <trkpt lat="48.7855" lon="1.44023">
        <ele>136.888703</ele>
        <time>2021-02-18T19:33:14.653Z</time>
      </trkpt>
      <trkpt lat="48.78561" lon="1.4399">
        <ele>136.739417</ele>
        <time>2021-02-18T19:33:19.812Z</time>
      </trkpt>
      <trkpt lat="48.78576" lon="1.43931">
        <ele>136.488401</ele>
        <time>2021-02-18T19:33:28.673Z</time>
      </trkpt>
      <trkpt lat="48.78586" lon="1.43867">
        <ele>136.318168</ele>
        <time>2021-02-18T19:33:37.969Z</time>
      </trkpt>
      <trkpt lat="48.78597" lon="1.438">
        <ele>136.354528</ele>
        <time>2021-02-18T19:33:47.864Z</time>
      </trkpt>
      <trkpt lat="48.78622" lon="1.43664">
        <ele>136.428537</ele>
        <time>2021-02-18T19:34:10.224Z</time>
      </trkpt>
      <trkpt lat="48.78617" lon="1.43605">
        <ele>136.523895</ele>
        <time>2021-02-18T19:34:21.164Z</time>
      </trkpt>
      <trkpt lat="48.78615" lon="1.43584">
        <ele>136.620166</ele>
        <time>2021-02-18T19:34:25.329Z</time>
      </trkpt>
      <trkpt lat="48.7861" lon="1.4353">
        <ele>136.859388</ele>
        <time>2021-02-18T19:34:35.485Z</time>
      </trkpt>
      <trkpt lat="48.78612" lon="1.4349">
        <ele>137.03527</ele>
        <time>2021-02-18T19:34:42.993Z</time>
      </trkpt>
      <trkpt lat="48.78627" lon="1.43431">
        <ele>137.314003</ele>
        <time>2021-02-18T19:34:54.332Z</time>
      </trkpt>
      <trkpt lat="48.78648" lon="1.43349">
        <ele>137.628119</ele>
        <time>2021-02-18T19:35:09.576Z</time>
      </trkpt>
      <trkpt lat="48.78676" lon="1.43238">
        <ele>137.386561</ele>
        <time>2021-02-18T19:35:27.521Z</time>
      </trkpt>
      <trkpt lat="48.78679" lon="1.43239">
        <ele>137.378316</ele>
        <time>2021-02-18T19:35:27.961Z</time>
      </trkpt>
      <trkpt lat="48.78762" lon="1.43232">
        <ele>137.122252</ele>
        <time>2021-02-18T19:35:45.604Z</time>
      </trkpt>
      <trkpt lat="48.78844" lon="1.43228">
        <ele>136.807313</ele>
        <time>2021-02-18T19:36:02.888Z</time>
      </trkpt>
      <trkpt lat="48.78915" lon="1.43225">
        <ele>136.530643</ele>
        <time>2021-02-18T19:36:18.490Z</time>
      </trkpt>
      <trkpt lat="48.78968" lon="1.43224">
        <ele>136.390647</ele>
        <time>2021-02-18T19:36:30.601Z</time>
      </trkpt>
      <trkpt lat="48.79021" lon="1.43236">
        <ele>136.380662</ele>
        <time>2021-02-18T19:36:43.100Z</time>
      </trkpt>
      <trkpt lat="48.79089" lon="1.43262">
        <ele>136.367579</ele>
        <time>2021-02-18T19:36:59.249Z</time>
      </trkpt>
      <trkpt lat="48.79139" lon="1.43288">
        <ele>136.387309</ele>
        <time>2021-02-18T19:37:11.278Z</time>
      </trkpt>
      <trkpt lat="48.79227" lon="1.43332">
        <ele>136.557377</ele>
        <time>2021-02-18T19:37:32.891Z</time>
      </trkpt>
      <trkpt lat="48.79244" lon="1.43329">
        <ele>136.588621</ele>
        <time>2021-02-18T19:37:36.889Z</time>
      </trkpt>
      <trkpt lat="48.79282" lon="1.43308">
        <ele>136.66212</ele>
        <time>2021-02-18T19:37:46.902Z</time>
      </trkpt>
      <trkpt lat="48.79392" lon="1.43218">
        <ele>137.223621</ele>
        <time>2021-02-18T19:38:20.967Z</time>
      </trkpt>
      <trkpt lat="48.7944" lon="1.4317">
        <ele>137.502524</ele>
        <time>2021-02-18T19:38:35.592Z</time>
      </trkpt>
      <trkpt lat="48.79458" lon="1.43146">
        <ele>137.561866</ele>
        <time>2021-02-18T19:38:41.208Z</time>
      </trkpt>
      <trkpt lat="48.79482" lon="1.43117">
        <ele>137.558612</ele>
        <time>2021-02-18T19:38:48.314Z</time>
      </trkpt>
      <trkpt lat="48.79491" lon="1.43097">
        <ele>137.556897</ele>
        <time>2021-02-18T19:38:52.248Z</time>
      </trkpt>
      <trkpt lat="48.79498" lon="1.43085">
        <ele>137.555792</ele>
        <time>2021-02-18T19:38:54.608Z</time>
      </trkpt>
      <trkpt lat="48.79504" lon="1.43079">
        <ele>137.555045</ele>
        <time>2021-02-18T19:38:56.075Z</time>
      </trkpt>
      <trkpt lat="48.79517" lon="1.43072">
        <ele>137.553519</ele>
        <time>2021-02-18T19:38:59.481Z</time>
      </trkpt>
      <trkpt lat="48.79552" lon="1.43061">
        <ele>137.549771</ele>
        <time>2021-02-18T19:39:07.251Z</time>
      </trkpt>
      <trkpt lat="48.79721" lon="1.43033">
        <ele>138.251827</ele>
        <time>2021-02-18T19:39:46.997Z</time>
      </trkpt>
      <trkpt lat="48.79901" lon="1.42983">
        <ele>140.322102</ele>
        <time>2021-02-18T19:40:46.422Z</time>
      </trkpt>
      <trkpt lat="48.80095" lon="1.42968">
        <ele>142.170283</ele>
        <time>2021-02-18T19:41:44.056Z</time>
      </trkpt>
      <trkpt lat="48.80136" lon="1.42965">
        <ele>142.472833</ele>
        <time>2021-02-18T19:41:53.687Z</time>
      </trkpt>
      <trkpt lat="48.80093" lon="1.43181">
        <ele>141.798805</ele>
        <time>2021-02-18T19:42:48.035Z</time>
      </trkpt>
      <trkpt lat="48.80057" lon="1.43366">
        <ele>140.616559</ele>
        <time>2021-02-18T19:43:32.773Z</time>
      </trkpt>
      <trkpt lat="48.80035" lon="1.43523">
        <ele>139.457896</ele>
        <time>2021-02-18T19:44:09.222Z</time>
      </trkpt>
      <trkpt lat="48.80118" lon="1.43593">
        <ele>138.507907</ele>
        <time>2021-02-18T19:44:41.926Z</time>
      </trkpt>
      <trkpt lat="48.8018" lon="1.4366">
        <ele>137.823162</ele>
        <time>2021-02-18T19:45:09.324Z</time>
      </trkpt>
      <trkpt lat="48.80221" lon="1.4377">
        <ele>138.015332</ele>
        <time>2021-02-18T19:45:41.041Z</time>
      </trkpt>
      <trkpt lat="48.80253" lon="1.43841">
        <ele>138.147343</ele>
        <time>2021-02-18T19:46:04.745Z</time>
      </trkpt>
      <trkpt lat="48.80477" lon="1.43723">
        <ele>139.484847</ele>
        <time>2021-02-18T19:47:45.118Z</time>
      </trkpt>
      <trkpt lat="48.80511" lon="1.43735">
        <ele>139.649975</ele>
        <time>2021-02-18T19:47:58.399Z</time>
      </trkpt>
      <trkpt lat="48.80535" lon="1.43772">
        <ele>139.810589</ele>
        <time>2021-02-18T19:48:12.269Z</time>
      </trkpt>
      <trkpt lat="48.80547" lon="1.43789">
        <ele>139.885887</ele>
        <time>2021-02-18T19:48:18.534Z</time>
      </trkpt>
      <trkpt lat="48.80567" lon="1.43895">
        <ele>140.227011</ele>
        <time>2021-02-18T19:48:48.490Z</time>
      </trkpt>
      <trkpt lat="48.80583" lon="1.4398">
        <ele>140.56372</ele>
        <time>2021-02-18T19:49:13.333Z</time>
      </trkpt>
      <trkpt lat="48.80591" lon="1.44053">
        <ele>140.845632</ele>
        <time>2021-02-18T19:49:33.741Z</time>
      </trkpt>
      <trkpt lat="48.80492" lon="1.4407">
        <ele>141.098522</ele>
        <time>2021-02-18T19:50:16.994Z</time>
      </trkpt>
      <trkpt lat="48.80406" lon="1.44071">
        <ele>140.634032</ele>
        <time>2021-02-18T19:50:47.293Z</time>
      </trkpt>
      <trkpt lat="48.80373" lon="1.4406">
        <ele>140.451534</ele>
        <time>2021-02-18T19:50:58.894Z</time>
      </trkpt>
      <trkpt lat="48.80359" lon="1.44106">
        <ele>140.269366</ele>
        <time>2021-02-18T19:51:10.595Z</time>
      </trkpt>
      <trkpt lat="48.80331" lon="1.44227">
        <ele>139.759364</ele>
        <time>2021-02-18T19:51:41.193Z</time>
      </trkpt>
      <trkpt lat="48.8046" lon="1.44215">
        <ele>138.931338</ele>
        <time>2021-02-18T19:52:28.651Z</time>
      </trkpt>
      <trkpt lat="48.80475" lon="1.44545">
        <ele>137.534022</ele>
        <time>2021-02-18T19:53:46.103Z</time>
      </trkpt>
      <trkpt lat="48.80478" lon="1.44617">
        <ele>137.335647</ele>
        <time>2021-02-18T19:54:03.217Z</time>
      </trkpt>
      <trkpt lat="48.80486" lon="1.44889">
        <ele>137.375969</ele>
        <time>2021-02-18T19:55:15.263Z</time>
      </trkpt>
      <trkpt lat="48.80239" lon="1.44931">
        <ele>137.795177</ele>
        <time>2021-02-18T19:56:52.604Z</time>
      </trkpt>
      <trkpt lat="48.80486" lon="1.44889">
        <ele>137.058548</ele>
        <time>2021-02-18T19:58:25.896Z</time>
      </trkpt>
      <trkpt lat="48.80691" lon="1.44854">
        <ele>135.465186</ele>
        <time>2021-02-18T19:59:38.353Z</time>
      </trkpt>
      <trkpt lat="48.80835" lon="1.44827">
        <ele>134.229984</ele>
        <time>2021-02-18T20:00:30.165Z</time>
      </trkpt>
      <trkpt lat="48.80996" lon="1.44796">
        <ele>132.865211</ele>
        <time>2021-02-18T20:01:28.103Z</time>
      </trkpt>
      <trkpt lat="48.81129" lon="1.44771">
        <ele>131.576077</ele>
        <time>2021-02-18T20:02:14.996Z</time>
      </trkpt>
      <trkpt lat="48.81198" lon="1.44758">
        <ele>131.10453</ele>
        <time>2021-02-18T20:02:39.262Z</time>
      </trkpt>
      <trkpt lat="48.81292" lon="1.4474">
        <ele>130.456169</ele>
        <time>2021-02-18T20:03:12.958Z</time>
      </trkpt>
      <trkpt lat="48.81548" lon="1.45118">
        <ele>132.326907</ele>
        <time>2021-02-18T20:05:39.854Z</time>
      </trkpt>
      <trkpt lat="48.8157" lon="1.45151">
        <ele>132.75493</ele>
        <time>2021-02-18T20:05:56.048Z</time>
      </trkpt>
      <trkpt lat="48.81705" lon="1.45356">
        <ele>135.584961</ele>
        <time>2021-02-18T20:07:31.296Z</time>
      </trkpt>
      <trkpt lat="48.81775" lon="1.45184">
        <ele>135.889704</ele>
        <time>2021-02-18T20:08:21.709Z</time>
      </trkpt>
      <trkpt lat="48.81778" lon="1.45183">
        <ele>135.897491</ele>
        <time>2021-02-18T20:08:22.857Z</time>
      </trkpt>
      <trkpt lat="48.81827" lon="1.45163">
        <ele>135.779885</ele>
        <time>2021-02-18T20:08:41.101Z</time>
      </trkpt>
      <trkpt lat="48.81884" lon="1.45164">
        <ele>135.559369</ele>
        <time>2021-02-18T20:09:01.441Z</time>
      </trkpt>
      <trkpt lat="48.81924" lon="1.45176">
        <ele>135.402294</ele>
        <time>2021-02-18T20:09:16.401Z</time>
      </trkpt>
      <trkpt lat="48.81966" lon="1.45198">
        <ele>135.22882</ele>
        <time>2021-02-18T20:09:33.389Z</time>
      </trkpt>
      <trkpt lat="48.81985" lon="1.45215">
        <ele>135.193813</ele>
        <time>2021-02-18T20:09:42.017Z</time>
      </trkpt>
      <trkpt lat="48.82077" lon="1.45231">
        <ele>135.053638</ele>
        <time>2021-02-18T20:10:17.886Z</time>
      </trkpt>
      <trkpt lat="48.82117" lon="1.45233">
        <ele>134.992411</ele>
        <time>2021-02-18T20:10:32.866Z</time>
      </trkpt>
      <trkpt lat="48.8215" lon="1.45226">
        <ele>134.870782</ele>
        <time>2021-02-18T20:10:45.161Z</time>
      </trkpt>
      <trkpt lat="48.82169" lon="1.45237">
        <ele>134.674136</ele>
        <time>2021-02-18T20:10:52.218Z</time>
      </trkpt>
      <trkpt lat="48.82284" lon="1.45553">
        <ele>132.542938</ele>
        <time>2021-02-18T20:12:15.144Z</time>
      </trkpt>
      <trkpt lat="48.82316" lon="1.45643">
        <ele>132.044276</ele>
        <time>2021-02-18T20:12:39.627Z</time>
      </trkpt>
      <trkpt lat="48.82338" lon="1.45693">
        <ele>131.944467</ele>
        <time>2021-02-18T20:12:54.560Z</time>
      </trkpt>
      <trkpt lat="48.82351" lon="1.45713">
        <ele>132.06961</ele>
        <time>2021-02-18T20:13:01.481Z</time>
      </trkpt>
      <trkpt lat="48.82375" lon="1.45713">
        <ele>132.2312</ele>
        <time>2021-02-18T20:13:10.435Z</time>
      </trkpt>
      <trkpt lat="48.82589" lon="1.45693">
        <ele>134.522761</ele>
        <time>2021-02-18T20:14:47.074Z</time>
      </trkpt>
      <trkpt lat="48.82598" lon="1.457">
        <ele>134.680157</ele>
        <time>2021-02-18T20:14:52.295Z</time>
      </trkpt>
      <trkpt lat="48.82624" lon="1.45608">
        <ele>135.713421</ele>
        <time>2021-02-18T20:15:25.810Z</time>
      </trkpt>
      <trkpt lat="48.82749" lon="1.45438">
        <ele>138.000236</ele>
        <time>2021-02-18T20:16:46.555Z</time>
      </trkpt>
      <trkpt lat="48.82772" lon="1.45407">
        <ele>138.334948</ele>
        <time>2021-02-18T20:16:58.490Z</time>
      </trkpt>
      <trkpt lat="48.82878" lon="1.4531">
        <ele>138.316008</ele>
        <time>2021-02-18T20:17:45.111Z</time>
      </trkpt>
      <trkpt lat="48.82912" lon="1.45286">
        <ele>138.310322</ele>
        <time>2021-02-18T20:17:58.862Z</time>
      </trkpt>
      <trkpt lat="48.8291" lon="1.45282">
        <ele>138.309812</ele>
        <time>2021-02-18T20:18:00.164Z</time>
      </trkpt>
      <trkpt lat="48.82913" lon="1.45274">
        <ele>138.308929</ele>
        <time>2021-02-18T20:18:02.365Z</time>
      </trkpt>
      <trkpt lat="48.82868" lon="1.45169">
        <ele>138.066855</ele>
        <time>2021-02-18T20:18:33.909Z</time>
      </trkpt>
      <trkpt lat="48.82796" lon="1.45002">
        <ele>137.274275</ele>
        <time>2021-02-18T20:19:22.344Z</time>
      </trkpt>
      <trkpt lat="48.82836" lon="1.44983">
        <ele>136.601079</ele>
        <time>2021-02-18T20:19:37.208Z</time>
      </trkpt>
      <trkpt lat="48.82866" lon="1.44947">
        <ele>135.996058</ele>
        <time>2021-02-18T20:19:50.266Z</time>
      </trkpt>
      <trkpt lat="48.82909" lon="1.44893">
        <ele>135.105679</ele>
        <time>2021-02-18T20:20:08.416Z</time>
      </trkpt>
      <trkpt lat="48.82966" lon="1.44806">
        <ele>131.71954</ele>
        <time>2021-02-18T20:20:33.317Z</time>
      </trkpt>
      <trkpt lat="48.83025" lon="1.44762">
        <ele>128.654242</ele>
        <time>2021-02-18T20:20:52.279Z</time>
      </trkpt>
      <trkpt lat="48.83085" lon="1.44722">
        <ele>125.114244</ele>
        <time>2021-02-18T20:21:10.592Z</time>
      </trkpt>
      <trkpt lat="48.83176" lon="1.4471">
        <ele>118.529773</ele>
        <time>2021-02-18T20:21:35.336Z</time>
      </trkpt>
      <trkpt lat="48.83227" lon="1.44697">
        <ele>114.797763</ele>
        <time>2021-02-18T20:21:49.367Z</time>
      </trkpt>
      <trkpt lat="48.83257" lon="1.44708">
        <ele>112.753492</ele>
        <time>2021-02-18T20:21:57.609Z</time>
      </trkpt>
      <trkpt lat="48.83277" lon="1.44732">
        <ele>111.189353</ele>
        <time>2021-02-18T20:22:04.631Z</time>
      </trkpt>
      <trkpt lat="48.83377" lon="1.45165">
        <ele>94.549766</ele>
        <time>2021-02-18T20:23:30.679Z</time>
      </trkpt>
      <trkpt lat="48.8338" lon="1.45177">
        <ele>94.133006</ele>
        <time>2021-02-18T20:23:33.207Z</time>
      </trkpt>
      <trkpt lat="48.83406" lon="1.45254">
        <ele>92.49008</ele>
        <time>2021-02-18T20:23:50.989Z</time>
      </trkpt>
      <trkpt lat="48.83422" lon="1.45273">
        <ele>91.998658</ele>
        <time>2021-02-18T20:23:57.653Z</time>
      </trkpt>
      <trkpt lat="48.83624" lon="1.45376">
        <ele>87.772858</ele>
        <time>2021-02-18T20:25:09.134Z</time>
      </trkpt>
      <trkpt lat="48.83698" lon="1.45399">
        <ele>86.589649</ele>
        <time>2021-02-18T20:25:34.620Z</time>
      </trkpt>
      <trkpt lat="48.83727" lon="1.45416">
        <ele>86.157132</ele>
        <time>2021-02-18T20:25:45.231Z</time>
      </trkpt>
      <trkpt lat="48.83773" lon="1.45462">
        <ele>85.4092</ele>
        <time>2021-02-18T20:26:04.125Z</time>
      </trkpt>
      <trkpt lat="48.83826" lon="1.45543">
        <ele>84.397614</ele>
        <time>2021-02-18T20:26:29.943Z</time>
      </trkpt>
      <trkpt lat="48.83847" lon="1.45586">
        <ele>83.951843</ele>
        <time>2021-02-18T20:26:42.264Z</time>
      </trkpt>
      <trkpt lat="48.83902" lon="1.45713">
        <ele>82.886208</ele>
        <time>2021-02-18T20:27:17.138Z</time>
      </trkpt>
      <trkpt lat="48.83984" lon="1.45879">
        <ele>81.443582</ele>
        <time>2021-02-18T20:28:05.237Z</time>
      </trkpt>
      <trkpt lat="48.84022" lon="1.45955">
        <ele>80.796335</ele>
        <time>2021-02-18T20:28:27.336Z</time>
      </trkpt>
      <trkpt lat="48.84045" lon="1.46014">
        <ele>80.333053</ele>
        <time>2021-02-18T20:28:43.114Z</time>
      </trkpt>
      <trkpt lat="48.84061" lon="1.46063">
        <ele>79.976505</ele>
        <time>2021-02-18T20:28:55.698Z</time>
      </trkpt>
      <trkpt lat="48.84086" lon="1.46198">
        <ele>79.059208</ele>
        <time>2021-02-18T20:29:27.960Z</time>
      </trkpt>
      <trkpt lat="48.84105" lon="1.46253">
        <ele>78.653403</ele>
        <time>2021-02-18T20:29:42.447Z</time>
      </trkpt>
      <trkpt lat="48.84129" lon="1.4629">
        <ele>78.435521</ele>
        <time>2021-02-18T20:29:54.589Z</time>
      </trkpt>
      <trkpt lat="48.84157" lon="1.46315">
        <ele>78.310546</ele>
        <time>2021-02-18T20:30:06.135Z</time>
      </trkpt>
      <trkpt lat="48.84181" lon="1.46336">
        <ele>78.205616</ele>
        <time>2021-02-18T20:30:16.354Z</time>
      </trkpt>
      <trkpt lat="48.84234" lon="1.46368">
        <ele>77.989547</ele>
        <time>2021-02-18T20:30:37.641Z</time>
      </trkpt>
      <trkpt lat="48.84262" lon="1.46373">
        <ele>77.885221</ele>
        <time>2021-02-18T20:30:48.119Z</time>
      </trkpt>
      <trkpt lat="48.84293" lon="1.46372">
        <ele>77.891904</ele>
        <time>2021-02-18T20:30:59.982Z</time>
      </trkpt>
      <trkpt lat="48.84319" lon="1.46367">
        <ele>77.993426</ele>
        <time>2021-02-18T20:31:07.581Z</time>
      </trkpt>
      <trkpt lat="48.84404" lon="1.4632">
        <ele>78.33812</ele>
        <time>2021-02-18T20:31:33.197Z</time>
      </trkpt>
      <trkpt lat="48.84431" lon="1.46314">
        <ele>78.441746</ele>
        <time>2021-02-18T20:31:40.080Z</time>
      </trkpt>
      <trkpt lat="48.84475" lon="1.46309">
        <ele>78.287363</ele>
        <time>2021-02-18T20:31:51.308Z</time>
      </trkpt>
      <trkpt lat="48.8453" lon="1.46314">
        <ele>77.776673</ele>
        <time>2021-02-18T20:32:03.798Z</time>
      </trkpt>
      <trkpt lat="48.84554" lon="1.46306">
        <ele>77.547827</ele>
        <time>2021-02-18T20:32:09.001Z</time>
      </trkpt>
      <trkpt lat="48.84582" lon="1.46266">
        <ele>77.191687</ele>
        <time>2021-02-18T20:32:16.494Z</time>
      </trkpt>
      <trkpt lat="48.84649" lon="1.46206">
        <ele>76.716401</ele>
        <time>2021-02-18T20:32:31.134Z</time>
      </trkpt>
      <trkpt lat="48.84679" lon="1.46195">
        <ele>76.610841</ele>
        <time>2021-02-18T20:32:37.332Z</time>
      </trkpt>
      <trkpt lat="48.84684" lon="1.46193">
        <ele>76.591583</ele>
        <time>2021-02-18T20:32:38.438Z</time>
      </trkpt>
      <trkpt lat="48.84718" lon="1.46151">
        <ele>76.44107</ele>
        <time>2021-02-18T20:32:47.817Z</time>
      </trkpt>
      <trkpt lat="48.8475" lon="1.46059">
        <ele>76.692524</ele>
        <time>2021-02-18T20:33:06.010Z</time>
      </trkpt>
      <trkpt lat="48.84753" lon="1.46044">
        <ele>77.14047</ele>
        <time>2021-02-18T20:33:08.673Z</time>
      </trkpt>
      <trkpt lat="48.84754" lon="1.46028">
        <ele>77.639532</ele>
        <time>2021-02-18T20:33:13.118Z</time>
      </trkpt>
      <trkpt lat="48.84783" lon="1.45889">
        <ele>81.974621</ele>
        <time>2021-02-18T20:33:56.598Z</time>
      </trkpt>
      <trkpt lat="48.84803" lon="1.45781">
        <ele>86.321622</ele>
        <time>2021-02-18T20:34:50.487Z</time>
      </trkpt>
      <trkpt lat="48.84818" lon="1.45695">
        <ele>91.647712</ele>
        <time>2021-02-18T20:35:42.549Z</time>
      </trkpt>
      <trkpt lat="48.84826" lon="1.45646">
        <ele>94.695202</ele>
        <time>2021-02-18T20:36:14.979Z</time>
      </trkpt>
      <trkpt lat="48.8483" lon="1.45622">
        <ele>96.220093</ele>
        <time>2021-02-18T20:36:32.639Z</time>
      </trkpt>
      <trkpt lat="48.84847" lon="1.45576">
        <ele>99.396949</ele>
        <time>2021-02-18T20:37:06.790Z</time>
      </trkpt>
      <trkpt lat="48.84866" lon="1.45542">
        <ele>101.822981</ele>
        <time>2021-02-18T20:37:34.377Z</time>
      </trkpt>
      <trkpt lat="48.84883" lon="1.45514">
        <ele>103.676567</ele>
        <time>2021-02-18T20:37:57.817Z</time>
      </trkpt>
      <trkpt lat="48.84903" lon="1.45482">
        <ele>105.896991</ele>
        <time>2021-02-18T20:38:25.388Z</time>
      </trkpt>
      <trkpt lat="48.84936" lon="1.45429">
        <ele>109.446813</ele>
        <time>2021-02-18T20:39:04.136Z</time>
      </trkpt>
      <trkpt lat="48.84992" lon="1.4534">
        <ele>114.702479</ele>
        <time>2021-02-18T20:40:03.911Z</time>
      </trkpt>
      <trkpt lat="48.85019" lon="1.45273">
        <ele>116.081871</ele>
        <time>2021-02-18T20:40:37.258Z</time>
      </trkpt>
      <trkpt lat="48.8505" lon="1.45175">
        <ele>117.988624</ele>
        <time>2021-02-18T20:41:15.990Z</time>
      </trkpt>
      <trkpt lat="48.85055" lon="1.45158">
        <ele>118.317665</ele>
        <time>2021-02-18T20:41:23.032Z</time>
      </trkpt>
      <trkpt lat="48.85057" lon="1.45151">
        <ele>118.452043</ele>
        <time>2021-02-18T20:41:25.190Z</time>
      </trkpt>
      <trkpt lat="48.85063" lon="1.45131">
        <ele>118.832803</ele>
        <time>2021-02-18T20:41:30.407Z</time>
      </trkpt>
      <trkpt lat="48.85064" lon="1.45129">
        <ele>118.868546</ele>
        <time>2021-02-18T20:41:30.924Z</time>
      </trkpt>
      <trkpt lat="48.85078" lon="1.45082">
        <ele>117.939678</ele>
        <time>2021-02-18T20:41:42.058Z</time>
      </trkpt>
      <trkpt lat="48.85097" lon="1.45034">
        <ele>116.363732</ele>
        <time>2021-02-18T20:41:53.676Z</time>
      </trkpt>
      <trkpt lat="48.85113" lon="1.44983">
        <ele>114.791468</ele>
        <time>2021-02-18T20:42:00.183Z</time>
      </trkpt>
      <trkpt lat="48.85124" lon="1.44954">
        <ele>113.874265</ele>
        <time>2021-02-18T20:42:04.048Z</time>
      </trkpt>
      <trkpt lat="48.85137" lon="1.44933">
        <ele>113.059768</ele>
        <time>2021-02-18T20:42:07.138Z</time>
      </trkpt>
      <trkpt lat="48.85145" lon="1.44919">
        <ele>112.519918</ele>
        <time>2021-02-18T20:42:09.280Z</time>
      </trkpt>
      <trkpt lat="48.85155" lon="1.44903">
        <ele>111.929623</ele>
        <time>2021-02-18T20:42:11.424Z</time>
      </trkpt>
      <trkpt lat="48.85186" lon="1.44848">
        <ele>108.654665</ele>
        <time>2021-02-18T20:42:19.262Z</time>
      </trkpt>
      <trkpt lat="48.85212" lon="1.44773">
        <ele>104.438848</ele>
        <time>2021-02-18T20:42:27.870Z</time>
      </trkpt>
      <trkpt lat="48.85243" lon="1.44624">
        <ele>96.938823</ele>
        <time>2021-02-18T20:42:44.338Z</time>
      </trkpt>
      <trkpt lat="48.85247" lon="1.44623">
        <ele>96.700767</ele>
        <time>2021-02-18T20:42:44.937Z</time>
      </trkpt>
      <trkpt lat="48.85244" lon="1.44575">
        <ele>94.873384</ele>
        <time>2021-02-18T20:42:49.888Z</time>
      </trkpt>
      <trkpt lat="48.8525" lon="1.4452">
        <ele>92.723229</ele>
        <time>2021-02-18T20:42:55.608Z</time>
      </trkpt>
      <trkpt lat="48.85276" lon="1.44421">
        <ele>88.615774</ele>
        <time>2021-02-18T20:43:06.633Z</time>
      </trkpt>
      <trkpt lat="48.85318" lon="1.44298">
        <ele>84.637859</ele>
        <time>2021-02-18T20:43:21.707Z</time>
      </trkpt>
      <trkpt lat="48.85318" lon="1.44298">
        <ele>84.637859</ele>
        <time>2021-02-18T20:43:22.070Z</time>
      </trkpt>
      <trkpt lat="48.85318" lon="1.44298">
        <ele>84.637859</ele>
        <time>2021-02-18T20:43:22.100Z</time>
      </trkpt>
      <trkpt lat="48.85321" lon="1.44288">
        <ele>84.375349</ele>
        <time>2021-02-18T20:43:23.236Z</time>
      </trkpt>
      <trkpt lat="48.8533" lon="1.44262">
        <ele>83.639527</ele>
        <time>2021-02-18T20:43:26.570Z</time>
      </trkpt>
      <trkpt lat="48.85338" lon="1.44249">
        <ele>83.1606</ele>
        <time>2021-02-18T20:43:28.662Z</time>
      </trkpt>
      <trkpt lat="48.85399" lon="1.44193">
        <ele>80.431308</ele>
        <time>2021-02-18T20:43:41.566Z</time>
      </trkpt>
      <trkpt lat="48.85424" lon="1.4416">
        <ele>79.352793</ele>
        <time>2021-02-18T20:43:47.539Z</time>
      </trkpt>
      <trkpt lat="48.85433" lon="1.44118">
        <ele>78.394714</ele>
        <time>2021-02-18T20:43:52.923Z</time>
      </trkpt>
      <trkpt lat="48.85445" lon="1.44088">
        <ele>77.650766</ele>
        <time>2021-02-18T20:43:57.227Z</time>
      </trkpt>
      <trkpt lat="48.85444" lon="1.44076">
        <ele>77.400923</ele>
        <time>2021-02-18T20:43:58.532Z</time>
      </trkpt>
      <trkpt lat="48.85502" lon="1.4403">
        <ele>75.259626</ele>
        <time>2021-02-18T20:44:10.722Z</time>
      </trkpt>
      <trkpt lat="48.85508" lon="1.44025">
        <ele>75.054688</ele>
        <time>2021-02-18T20:44:11.777Z</time>
      </trkpt>
      <trkpt lat="48.85514" lon="1.44021">
        <ele>74.830399</ele>
        <time>2021-02-18T20:44:13.097Z</time>
      </trkpt>
      <trkpt lat="48.85584" lon="1.43967">
        <ele>72.913251</ele>
        <time>2021-02-18T20:44:27.856Z</time>
      </trkpt>
      <trkpt lat="48.85592" lon="1.43961">
        <ele>72.708972</ele>
        <time>2021-02-18T20:44:29.574Z</time>
      </trkpt>
      <trkpt lat="48.85612" lon="1.43947">
        <ele>72.191581</ele>
        <time>2021-02-18T20:44:33.828Z</time>
      </trkpt>
      <trkpt lat="48.85643" lon="1.43923">
        <ele>71.380152</ele>
        <time>2021-02-18T20:44:40.542Z</time>
      </trkpt>
      <trkpt lat="48.85652" lon="1.43917">
        <ele>71.16339</ele>
        <time>2021-02-18T20:44:42.437Z</time>
      </trkpt>
      <trkpt lat="48.85655" lon="1.43922">
        <ele>71.055892</ele>
        <time>2021-02-18T20:44:43.374Z</time>
      </trkpt>
      <trkpt lat="48.85671" lon="1.43943">
        <ele>70.554378</ele>
        <time>2021-02-18T20:44:47.671Z</time>
      </trkpt>
      <trkpt lat="48.85685" lon="1.43948">
        <ele>70.334917</ele>
        <time>2021-02-18T20:44:50.506Z</time>
      </trkpt>
      <trkpt lat="48.85759" lon="1.43939">
        <ele>70.334917</ele>
        <time>2021-02-18T20:45:06.322Z</time>
      </trkpt>
      <trkpt lat="48.85762" lon="1.43937">
        <ele>70.334917</ele>
        <time>2021-02-18T20:45:07.047Z</time>
      </trkpt>
      <trkpt lat="48.85771" lon="1.43931">
        <ele>70.334917</ele>
        <time>2021-02-18T20:45:09.040Z</time>
      </trkpt>
      <trkpt lat="48.85808" lon="1.43898">
        <ele>70.334917</ele>
        <time>2021-02-18T20:45:18.805Z</time>
      </trkpt>
      <trkpt lat="48.85813" lon="1.43898">
        <ele>70.334917</ele>
        <time>2021-02-18T20:45:19.852Z</time>
      </trkpt>
      <trkpt lat="48.85811" lon="1.43869">
        <ele>70.334917</ele>
        <time>2021-02-18T20:45:23.831Z</time>
      </trkpt>
    </trkseg>
  </trk>
</gpx>